Terminal Aerodrome Forecast
Issued by NWS

Home | Current Version | Previous Version | Text Only | Print | Product List | Glossary On
Versions: 1 2 3 4 5 6 7 8 9 10 11 12 13 14 15
099
FTUS42 KFFC 232332
TAFRYY
TAF
KRYY 232332Z 2400/2424 32007KT P6SM FEW040
     FM240100 31005KT P6SM SKC
     FM240800 33003KT P6SM SCT250
     FM241500 02006KT P6SM FEW035 SCT250=

USA.gov is the U.S. government's official web portal to all federal, state and local government web resources and services.